Ursa, Illinois
Current Conditions -  °F | °C
As of 6:54 AM on Friday 24 Oct 2014 (Local Time) from KUIN Reporting Station
Moderate Fog Moderate Fog  
Wind Chill: 55°   Ceiling: 200
Heat Index: 55°   Visibility: 0.25mi
Dew Point: 54°   Wind: 0mph
Humidity: 96%   Direction: NA
Pressure: 30.07"   Gusts: NA
Location:  40.07°N, 91.37°W
Report Text: KUIN 241154Z AUTO 00000KT 1/4SM FG VV002 13/12 A3007 RMK AO2 SLP182 70001 T01280122 10128 20111 58001
Loading
Personal Weather Stations






























Interactive Weather Map
Tropical Storm Tracking
New forecast layout! Learn more

10-Day Weather Forecast

Advertisements
Track Severe Weather on mobile